createdAt,value
2018-07-28T00:00:38.391Z,60.88
2018-07-28T00:01:38.956Z,60.59
2018-07-28T00:02:39.547Z,60.21
2018-07-28T00:03:40.114Z,60.50
2018-07-28T00:04:40.662Z,60.21
2018-07-28T00:05:41.227Z,60.40
2018-07-28T00:06:41.783Z,60.30
2018-07-28T00:07:42.343Z,61.46
2018-07-28T00:08:42.903Z,61.66
2018-07-28T00:09:43.460Z,60.72
2018-07-28T00:10:44.019Z,61.79
2018-07-28T00:11:44.578Z,61.85
2018-07-28T00:12:45.135Z,61.40
2018-07-28T00:13:45.693Z,61.40
2018-07-28T00:14:46.251Z,61.40
2018-07-28T00:15:46.811Z,60.62
2018-07-28T00:16:47.372Z,60.62
2018-07-28T00:17:47.927Z,61.01
2018-07-28T00:18:48.485Z,60.62
2018-07-28T00:19:49.048Z,60.52
2018-07-28T00:20:49.608Z,60.24
2018-07-28T00:21:50.165Z,59.84
2018-07-28T00:22:50.726Z,59.75
2018-07-28T00:23:51.279Z,59.75
2018-07-28T00:24:51.828Z,60.14
2018-07-28T00:25:52.396Z,59.66
2018-07-28T00:26:52.951Z,61.49
2018-07-28T00:27:53.510Z,61.69
2018-07-28T00:28:54.063Z,61.49
2018-07-28T00:29:54.616Z,60.82
2018-07-28T00:30:55.174Z,60.91
2018-07-28T00:31:55.732Z,60.88
2018-07-28T00:32:56.293Z,61.18
2018-07-28T00:33:56.850Z,61.56
2018-07-28T00:34:57.410Z,61.66
2018-07-28T00:35:57.971Z,61.66
2018-07-28T00:36:58.529Z,62.04
2018-07-28T00:37:59.087Z,62.04
2018-07-28T00:38:59.635Z,62.24
2018-07-28T00:40:00.189Z,61.76
2018-07-28T00:41:00.751Z,61.66
2018-07-28T00:42:01.305Z,61.76
2018-07-28T00:43:01.858Z,62.24
2018-07-28T00:44:02.419Z,62.14
2018-07-28T00:45:02.972Z,62.72
2018-07-28T00:46:03.529Z,62.34
2018-07-28T00:47:04.081Z,62.43
2018-07-28T00:48:04.640Z,62.43
2018-07-28T00:49:05.201Z,63.11
2018-07-28T00:50:05.748Z,63.11
2018-07-28T00:51:06.304Z,62.43
2018-07-28T00:52:06.872Z,62.72
2018-07-28T00:53:07.424Z,63.01
2018-07-28T00:54:07.985Z,62.53
2018-07-28T00:55:08.543Z,62.92
2018-07-28T00:56:09.099Z,62.82
2018-07-28T00:57:09.661Z,63.11
2018-07-28T00:58:10.219Z,63.21
2018-07-28T00:59:10.777Z,63.40
2018-07-28T01:00:11.337Z,63.08
2018-07-28T01:01:11.884Z,63.18
2018-07-28T01:02:12.443Z,63.85
2018-07-28T01:03:13.004Z,63.85
2018-07-28T01:04:13.561Z,64.53
2018-07-28T01:05:14.118Z,65.01
2018-07-28T01:06:14.679Z,65.01
2018-07-28T01:07:15.239Z,65.01
2018-07-28T01:08:15.805Z,65.20
2018-07-28T01:09:16.349Z,64.53
2018-07-28T01:10:16.908Z,65.50
2018-07-28T01:11:17.468Z,64.72
2018-07-28T01:12:18.025Z,64.92
2018-07-28T01:13:18.576Z,64.72
2018-07-28T01:14:19.133Z,65.01
2018-07-28T01:15:19.693Z,65.01
2018-07-28T01:16:20.250Z,65.11
2018-07-28T01:17:20.804Z,65.30
2018-07-28T01:18:21.365Z,65.01
2018-07-28T01:19:21.920Z,64.98
2018-07-28T01:20:22.473Z,65.11
2018-07-28T01:21:23.032Z,64.98
2018-07-28T01:22:23.585Z,65.27
2018-07-28T01:23:24.145Z,65.95
2018-07-28T01:24:24.699Z,66.05
2018-07-28T01:25:25.256Z,65.95
2018-07-28T01:26:25.813Z,66.72
2018-07-28T01:27:26.374Z,67.21
2018-07-28T01:28:26.930Z,67.98
2018-07-28T01:29:27.480Z,67.88
2018-07-28T01:30:28.035Z,67.88
2018-07-28T01:31:28.588Z,67.98
2018-07-28T01:32:29.146Z,67.69
2018-07-28T01:33:29.699Z,67.59
2018-07-28T01:34:30.256Z,68.08
2018-07-28T01:35:30.817Z,67.88
2018-07-28T01:36:31.372Z,67.88
2018-07-28T01:37:31.929Z,68.04
2018-07-28T01:38:32.486Z,68.24
2018-07-28T01:39:33.043Z,68.62
2018-07-28T01:40:33.607Z,68.46
2018-07-28T01:41:34.161Z,68.52
2018-07-28T01:42:34.719Z,68.43
2018-07-28T01:43:35.274Z,68.72
2018-07-28T01:44:35.832Z,69.30
2018-07-28T01:45:36.390Z,69.30
2018-07-28T01:46:36.953Z,69.30
2018-07-28T01:47:37.510Z,69.20
2018-07-28T01:48:38.067Z,69.10
2018-07-28T01:49:38.623Z,68.91
2018-07-28T01:50:39.183Z,69.59
2018-07-28T01:51:39.744Z,70.07
2018-07-28T01:52:40.296Z,69.49
2018-07-28T01:53:40.851Z,70.26
2018-07-28T01:54:41.411Z,70.46
2018-07-28T01:55:41.971Z,70.65
2018-07-28T01:56:42.520Z,70.81
2018-07-28T01:57:43.076Z,70.90
2018-07-28T01:58:43.631Z,70.52
2018-07-28T01:59:44.230Z,70.81
2018-07-28T02:00:44.748Z,70.52
2018-07-28T02:01:45.311Z,70.62
2018-07-28T02:02:45.868Z,70.52
2018-07-28T02:03:46.424Z,70.42
2018-07-28T02:04:46.981Z,71.48
2018-07-28T02:05:47.541Z,71.97
2018-07-28T02:06:48.100Z,72.90
2018-07-28T02:07:48.656Z,73.22
2018-07-28T02:08:49.217Z,72.84
2018-07-28T02:09:49.774Z,72.36
2018-07-28T02:10:50.341Z,72.55
2018-07-28T02:11:50.891Z,72.16
2018-07-28T02:12:51.442Z,72.55
2018-07-28T02:13:51.996Z,72.36
2018-07-28T02:14:52.555Z,72.94
2018-07-28T02:15:53.113Z,74.77
2018-07-28T02:16:53.670Z,75.29
2018-07-28T02:17:54.225Z,75.10
2018-07-28T02:18:54.778Z,75.58
2018-07-28T02:19:55.336Z,75.78
2018-07-28T02:20:55.894Z,75.87
2018-07-28T02:21:56.449Z,75.87
2018-07-28T02:22:57.003Z,76.06
2018-07-28T02:23:57.555Z,75.48
2018-07-28T02:24:58.114Z,75.78
2018-07-28T02:25:58.670Z,75.87
2018-07-28T02:26:59.219Z,75.97
2018-07-28T02:27:59.773Z,75.68
2018-07-28T02:29:00.333Z,76.06
2018-07-28T02:30:00.893Z,76.16
2018-07-28T02:31:01.455Z,76.45
2018-07-28T02:32:02.008Z,76.74
2018-07-28T02:33:02.584Z,76.64
2018-07-28T02:34:03.126Z,77.32
2018-07-28T02:35:03.675Z,77.51
2018-07-28T02:36:04.236Z,77.42
2018-07-28T02:37:04.795Z,77.42
2018-07-28T02:38:05.349Z,77.90
2018-07-28T02:39:05.903Z,78.38
2018-07-28T02:40:06.456Z,78.09
2018-07-28T02:41:07.016Z,78.06
2018-07-28T02:42:07.576Z,78.25
2018-07-28T02:43:08.131Z,78.54
2018-07-28T02:44:08.687Z,78.48
2018-07-28T02:45:09.243Z,78.77
2018-07-28T02:46:09.802Z,78.58
2018-07-28T02:47:10.361Z,78.48
2018-07-28T02:48:10.919Z,78.77
2018-07-28T02:49:11.480Z,78.67
2018-07-28T02:50:12.034Z,78.58
2018-07-28T02:51:12.591Z,78.92
2018-07-28T02:52:13.145Z,78.92
2018-07-28T02:53:13.721Z,78.87
2018-07-28T02:54:14.262Z,78.92
2018-07-28T02:55:14.819Z,79.12
2018-07-28T02:56:15.377Z,79.02
2018-07-28T02:57:15.933Z,79.50
2018-07-28T02:58:16.492Z,80.08
2018-07-28T02:59:17.043Z,79.80
2018-07-28T03:00:17.643Z,80.08
2018-07-28T03:01:18.150Z,79.89
2018-07-28T03:02:18.709Z,79.80
2018-07-28T03:03:19.270Z,80.08
2018-07-28T03:04:19.830Z,79.89
2018-07-28T03:05:20.395Z,79.89
2018-07-28T03:06:20.953Z,80.08
2018-07-28T03:07:21.504Z,80.38
2018-07-28T03:08:22.055Z,79.99
2018-07-28T03:09:22.618Z,79.99
2018-07-28T03:10:23.169Z,79.99
2018-07-28T03:11:23.725Z,79.99
2018-07-28T03:12:24.288Z,79.99
2018-07-28T03:13:24.842Z,80.18
2018-07-28T03:14:25.409Z,80.08
2018-07-28T03:15:25.943Z,80.28
2018-07-28T03:16:26.500Z,80.08
2018-07-28T03:17:27.054Z,80.66
2018-07-28T03:18:27.616Z,80.28
2018-07-28T03:19:28.176Z,80.28
2018-07-28T03:20:28.729Z,80.47
2018-07-28T03:21:29.296Z,80.38
2018-07-28T03:22:29.843Z,80.28
2018-07-28T03:23:30.407Z,80.38
2018-07-28T03:24:30.964Z,80.86
2018-07-28T03:25:31.521Z,80.66
2018-07-28T03:26:32.077Z,80.86
2018-07-28T03:27:32.630Z,80.57
2018-07-28T03:28:33.186Z,80.66
2018-07-28T03:29:33.745Z,80.86
2018-07-28T03:30:34.304Z,81.53
2018-07-28T03:31:34.864Z,81.24
2018-07-28T03:32:35.422Z,81.15
2018-07-28T03:33:35.991Z,81.49
2018-07-28T03:34:36.540Z,81.59
2018-07-28T03:35:37.097Z,81.78
2018-07-28T03:36:37.854Z,81.68
2018-07-28T03:37:38.413Z,81.78
2018-07-28T03:38:38.976Z,81.78
2018-07-28T03:39:39.535Z,81.59
2018-07-28T03:40:40.095Z,81.98
2018-07-28T03:41:40.656Z,81.82
2018-07-28T03:42:41.215Z,81.82
2018-07-28T03:43:41.778Z,82.11
2018-07-28T03:44:42.335Z,82.36
2018-07-28T03:45:42.896Z,82.56
2018-07-28T03:46:43.456Z,82.75
2018-07-28T03:47:44.029Z,82.46
2018-07-28T03:48:44.577Z,82.84
2018-07-28T03:49:45.139Z,82.56
2018-07-28T03:50:45.694Z,82.94
2018-07-28T03:51:46.251Z,83.14
2018-07-28T03:52:46.812Z,83.04
2018-07-28T03:53:47.375Z,82.65
2018-07-28T03:54:47.931Z,83.14
2018-07-28T03:55:48.492Z,83.23
2018-07-28T03:56:49.054Z,83.23
2018-07-28T03:57:49.615Z,83.33
2018-07-28T03:58:50.177Z,83.33
2018-07-28T03:59:50.743Z,83.04
2018-07-28T04:00:51.303Z,83.23
2018-07-28T04:01:51.871Z,83.14
2018-07-28T04:02:52.428Z,83.33
2018-07-28T04:03:52.989Z,83.33
2018-07-28T04:04:53.553Z,83.42
2018-07-28T04:05:54.118Z,83.14
2018-07-28T04:06:54.678Z,83.33
2018-07-28T04:07:55.238Z,83.47
2018-07-28T04:08:55.800Z,82.98
2018-07-28T04:09:56.364Z,82.98
2018-07-28T04:10:56.925Z,83.18
2018-07-28T04:11:57.489Z,83.27
2018-07-28T04:12:58.048Z,83.18
2018-07-28T04:13:58.611Z,82.69
2018-07-28T04:14:59.177Z,83.08
2018-07-28T04:15:59.737Z,82.69
2018-07-28T04:17:00.301Z,82.02
2018-07-28T04:18:00.865Z,82.02
2018-07-28T04:19:01.427Z,82.15
2018-07-28T04:20:01.990Z,82.06
2018-07-28T04:21:02.551Z,82.35
2018-07-28T04:22:03.107Z,81.48
2018-07-28T04:23:03.670Z,81.09
2018-07-28T04:24:04.233Z,81.29
2018-07-28T04:25:04.796Z,80.90
2018-07-28T04:26:05.359Z,80.80
2018-07-28T04:27:05.920Z,81.19
2018-07-28T04:28:06.478Z,81.29
2018-07-28T04:29:07.041Z,81.48
2018-07-28T04:30:07.613Z,81.29
2018-07-28T04:31:08.168Z,81.29
2018-07-28T04:32:08.722Z,81.48
2018-07-28T04:33:09.286Z,81.57
2018-07-28T04:34:09.847Z,81.29
2018-07-28T04:35:10.411Z,81.53
2018-07-28T04:36:10.965Z,81.44
2018-07-28T04:37:11.672Z,81.92
2018-07-28T04:38:12.089Z,82.98
2018-07-28T04:39:12.655Z,83.18
2018-07-28T04:40:13.216Z,83.85
2018-07-28T04:41:13.779Z,84.14
2018-07-28T04:42:14.344Z,84.24
2018-07-28T04:43:14.910Z,83.85
2018-07-28T04:44:15.465Z,84.19
2018-07-28T04:45:16.030Z,83.22
2018-07-28T04:46:16.594Z,83.20
2018-07-28T04:47:17.157Z,81.37
2018-07-28T04:48:17.726Z,80.44
2018-07-28T04:49:18.290Z,79.27
2018-07-28T04:50:18.857Z,78.79
2018-07-28T04:51:19.417Z,79.04
2018-07-28T04:52:19.981Z,79.72
2018-07-28T04:53:20.549Z,80.20
2018-07-28T04:54:21.100Z,80.26
2018-07-28T04:55:21.665Z,80.46
2018-07-28T04:56:22.228Z,80.84
2018-07-28T04:57:22.789Z,81.32
2018-07-28T04:58:23.354Z,81.87
2018-07-28T04:59:23.917Z,82.73
2018-07-28T05:00:24.481Z,82.64
2018-07-28T05:01:25.040Z,82.73
2018-07-28T05:02:25.597Z,82.64
2018-07-28T05:03:26.156Z,82.35
2018-07-28T05:04:26.720Z,82.83
2018-07-28T05:05:27.293Z,83.51
2018-07-28T05:06:27.833Z,85.05
2018-07-28T05:07:28.453Z,85.53
2018-07-28T05:08:28.953Z,85.40
2018-07-28T05:09:29.510Z,87.81
2018-07-28T05:10:30.073Z,87.43
2018-07-28T05:11:30.638Z,86.65
2018-07-28T05:12:31.213Z,86.94
2018-07-28T05:13:31.756Z,87.71
2018-07-28T05:14:32.319Z,88.29
2018-07-28T05:15:32.881Z,88.06
2018-07-28T05:16:33.448Z,89.41
2018-07-28T05:17:34.000Z,89.89
2018-07-28T05:18:34.563Z,89.79
2018-07-28T05:19:35.126Z,90.67
2018-07-28T05:20:35.690Z,90.77
2018-07-28T05:21:36.253Z,90.53
2018-07-28T05:22:36.816Z,91.59
2018-07-28T05:23:37.404Z,91.20
2018-07-28T05:24:37.940Z,91.35
2018-07-28T05:25:38.506Z,91.44
2018-07-28T05:26:39.065Z,92.21
2018-07-28T05:27:39.628Z,92.11
2018-07-28T05:28:40.195Z,92.11
2018-07-28T05:29:40.793Z,92.02
2018-07-28T05:30:41.320Z,91.83
2018-07-28T05:31:41.884Z,92.02
2018-07-28T05:32:42.451Z,92.02
2018-07-28T05:33:43.007Z,91.73
2018-07-28T05:34:43.570Z,91.92
2018-07-28T05:35:44.132Z,91.92
2018-07-28T05:36:44.697Z,92.21
2018-07-28T05:37:45.261Z,91.87
2018-07-28T05:38:45.824Z,92.55
2018-07-28T05:39:46.389Z,92.25
2018-07-28T05:40:46.949Z,92.83
2018-07-28T05:41:47.515Z,92.41
2018-07-28T05:42:48.075Z,92.41
2018-07-28T05:43:48.641Z,92.60
2018-07-28T05:44:49.209Z,93.08
2018-07-28T05:45:49.768Z,93.95
2018-07-28T05:46:50.330Z,94.24
2018-07-28T05:47:50.885Z,94.48
2018-07-28T05:48:51.443Z,94.87
2018-07-28T05:49:52.007Z,94.77
2018-07-28T05:50:52.566Z,95.16
2018-07-28T05:51:53.128Z,95.01
2018-07-28T05:52:53.692Z,95.25
2018-07-28T05:53:54.254Z,95.35
2018-07-28T05:54:54.817Z,95.01
2018-07-28T05:55:55.375Z,95.01
2018-07-28T05:56:55.943Z,94.77
2018-07-28T05:57:56.504Z,95.59
2018-07-28T05:58:57.064Z,95.50
2018-07-28T05:59:57.630Z,94.82
2018-07-28T06:00:58.195Z,94.24
2018-07-28T06:01:58.759Z,94.34
2018-07-28T06:02:59.322Z,93.66
2018-07-28T06:03:59.884Z,94.14
2018-07-28T06:05:00.463Z,94.24
2018-07-28T06:06:01.017Z,94.34
2018-07-28T06:07:01.573Z,93.56
2018-07-28T06:08:02.129Z,93.85
2018-07-28T06:09:02.694Z,94.04
2018-07-28T06:10:03.257Z,94.00
2018-07-28T06:11:03.823Z,93.42
2018-07-28T06:12:04.388Z,93.42
2018-07-28T06:13:04.954Z,93.85
2018-07-28T06:14:05.535Z,93.04
2018-07-28T06:15:06.087Z,93.23
2018-07-28T06:16:06.644Z,93.18
2018-07-28T06:17:07.209Z,92.98
2018-07-28T06:18:07.772Z,92.21
2018-07-28T06:19:08.332Z,92.02
2018-07-28T06:20:08.996Z,91.73
2018-07-28T06:21:09.513Z,91.44
2018-07-28T06:22:10.075Z,92.02
2018-07-28T06:23:10.643Z,91.05
2018-07-28T06:24:11.214Z,91.44
2018-07-28T06:25:11.768Z,91.44
2018-07-28T06:26:12.329Z,91.92
2018-07-28T06:27:12.922Z,91.73
2018-07-28T06:28:13.461Z,91.58
2018-07-28T06:29:14.024Z,91.97
2018-07-28T06:30:14.583Z,92.25
2018-07-28T06:31:15.146Z,91.97
2018-07-28T06:32:15.707Z,91.33
2018-07-28T06:33:16.269Z,91.53
2018-07-28T06:34:16.835Z,91.14
2018-07-28T06:35:17.391Z,91.14
2018-07-28T06:36:17.959Z,90.95
2018-07-28T06:37:18.519Z,90.17
2018-07-28T06:38:19.091Z,89.89
2018-07-28T06:39:19.647Z,90.17
2018-07-28T06:40:20.209Z,89.98
2018-07-28T06:41:20.774Z,89.69
2018-07-28T06:42:21.338Z,89.79
2018-07-28T06:43:21.897Z,90.08
2018-07-28T06:44:22.469Z,89.31
2018-07-28T06:45:23.029Z,89.35
2018-07-28T06:46:23.596Z,89.35
2018-07-28T06:47:24.216Z,88.33
2018-07-28T06:48:24.724Z,88.43
2018-07-28T06:49:25.291Z,87.85
2018-07-28T06:50:25.863Z,87.36
2018-07-28T06:51:26.432Z,86.78
2018-07-28T06:52:26.992Z,87.27
2018-07-28T06:53:27.561Z,86.78
2018-07-28T06:54:28.126Z,86.59
2018-07-28T06:55:28.685Z,85.72
2018-07-28T06:56:29.252Z,85.72
2018-07-28T06:57:29.809Z,86.49
2018-07-28T06:58:30.413Z,86.98
2018-07-28T06:59:30.944Z,86.30
2018-07-28T07:00:31.504Z,86.54
2018-07-28T07:01:32.074Z,85.66
2018-07-28T07:02:32.641Z,85.37
2018-07-28T07:03:33.210Z,84.99
2018-07-28T07:04:33.794Z,84.41
2018-07-28T07:05:34.351Z,84.89
2018-07-28T07:06:34.917Z,84.69
2018-07-28T07:07:35.486Z,84.83
2018-07-28T07:08:36.052Z,84.25
2018-07-28T07:09:36.626Z,83.72
2018-07-28T07:10:37.197Z,83.23
2018-07-28T07:11:37.808Z,82.88
2018-07-28T07:12:38.322Z,82.73
2018-07-28T07:13:38.894Z,79.57
2018-07-28T07:14:39.468Z,79.16
2018-07-28T07:15:40.039Z,77.15
2018-07-28T07:16:40.611Z,75.58
2018-07-28T07:17:41.178Z,73.47
2018-07-28T07:18:41.742Z,72.50
2018-07-28T07:19:42.318Z,71.53
2018-07-28T07:20:42.892Z,72.02
2018-07-28T07:21:43.466Z,72.37
2018-07-28T07:22:44.035Z,72.27
2018-07-28T07:23:44.607Z,72.43
2018-07-28T07:24:45.206Z,72.88
2018-07-28T07:25:45.745Z,73.37
2018-07-28T07:26:46.326Z,74.21
2018-07-28T07:27:46.890Z,75.72
2018-07-28T07:28:47.462Z,75.43
2018-07-28T07:29:48.038Z,75.43
2018-07-28T07:30:48.606Z,76.01
2018-07-28T07:31:49.169Z,75.53
2018-07-28T07:32:49.737Z,76.01
2018-07-28T07:33:50.303Z,76.37
2018-07-28T07:34:50.878Z,76.17
2018-07-28T07:35:51.446Z,76.32
2018-07-28T07:36:52.018Z,77.01
2018-07-28T07:37:52.598Z,77.49
2018-07-28T07:38:53.146Z,78.36
2018-07-28T07:39:53.711Z,77.88
2018-07-28T07:40:54.286Z,78.17
2018-07-28T07:41:54.845Z,78.07
2018-07-28T07:42:55.410Z,78.52
2018-07-28T07:43:55.975Z,78.81
2018-07-28T07:44:56.547Z,79.00
2018-07-28T07:45:57.116Z,79.00
2018-07-28T07:46:57.681Z,79.30
2018-07-28T07:47:58.253Z,79.10
2018-07-28T07:48:58.824Z,79.58
2018-07-28T07:49:59.390Z,79.16
2018-07-28T07:50:59.966Z,79.78
2018-07-28T07:52:00.521Z,79.97
2018-07-28T07:53:01.100Z,79.49
2018-07-28T07:54:01.696Z,79.78
2018-07-28T07:55:02.219Z,79.78
2018-07-28T07:56:02.791Z,79.72
2018-07-28T07:57:03.353Z,79.43
2018-07-28T07:58:03.920Z,79.14
2018-07-28T07:59:04.496Z,79.63
2018-07-28T08:00:05.061Z,79.43
2018-07-28T08:01:05.629Z,79.04
2018-07-28T08:02:06.198Z,79.14
2018-07-28T08:03:06.780Z,79.88
2018-07-28T08:04:07.334Z,78.91
2018-07-28T08:05:07.897Z,80.26
2018-07-28T08:06:08.467Z,79.68
2018-07-28T08:07:09.036Z,79.97
2018-07-28T08:08:09.607Z,80.46
2018-07-28T08:09:10.174Z,80.26
2018-07-28T08:10:10.749Z,79.58
2018-07-28T08:11:11.306Z,79.88
2018-07-28T08:12:11.880Z,79.78
2018-07-28T08:13:12.445Z,79.20
2018-07-28T08:14:13.006Z,80.07
2018-07-28T08:15:13.572Z,80.55
2018-07-28T08:16:14.141Z,80.46
2018-07-28T08:17:14.699Z,80.46
2018-07-28T08:18:15.267Z,80.07
2018-07-28T08:19:15.836Z,80.46
2018-07-28T08:20:16.410Z,80.22
2018-07-28T08:21:16.967Z,80.32
2018-07-28T08:22:17.532Z,80.94
2018-07-28T08:23:18.181Z,80.36
2018-07-28T08:24:18.788Z,79.33
2018-07-28T08:25:19.356Z,78.94
2018-07-28T08:26:19.929Z,78.40
2018-07-28T08:27:20.497Z,77.67
2018-07-28T08:28:21.067Z,77.70
2018-07-28T08:29:21.640Z,74.69
2018-07-28T08:30:22.199Z,74.92
2018-07-28T08:31:22.772Z,72.86
2018-07-28T08:32:23.337Z,71.50
2018-07-28T08:33:23.954Z,70.75
2018-07-28T08:34:24.507Z,69.58
2018-07-28T08:35:25.051Z,68.97
2018-07-28T08:36:25.627Z,67.32
2018-07-28T08:37:26.195Z,67.54
2018-07-28T08:38:26.779Z,67.28
2018-07-28T08:39:27.368Z,64.65
2018-07-28T08:40:27.917Z,64.68
2018-07-28T08:41:28.499Z,64.12
2018-07-28T08:42:29.070Z,61.43
2018-07-28T08:43:29.677Z,61.33
2018-07-28T08:44:30.251Z,61.88
2018-07-28T08:45:30.839Z,62.27
2018-07-28T08:46:31.411Z,61.72
2018-07-28T08:47:31.986Z,61.23
2018-07-28T08:48:32.554Z,61.98
2018-07-28T08:49:33.173Z,62.27
2018-07-28T08:50:33.706Z,62.05
2018-07-28T08:51:34.331Z,62.73
2018-07-28T08:52:34.852Z,62.44
2018-07-28T08:53:35.427Z,61.95
2018-07-28T08:54:36.005Z,62.21
2018-07-28T08:55:36.641Z,62.60
2018-07-28T08:56:37.130Z,62.99
2018-07-28T08:57:37.698Z,63.48
2018-07-28T08:58:38.263Z,64.03
2018-07-28T08:59:38.835Z,63.93
2018-07-28T09:00:39.406Z,64.03
2018-07-28T09:01:39.965Z,64.59
2018-07-28T09:02:40.546Z,64.84
2018-07-28T09:03:41.113Z,65.50
2018-07-28T09:04:41.681Z,66.56
2018-07-28T09:05:42.249Z,66.17
2018-07-28T09:06:42.820Z,66.37
2018-07-28T09:07:43.388Z,66.66
2018-07-28T09:08:43.952Z,66.76
2018-07-28T09:09:44.531Z,67.15
2018-07-28T09:10:45.100Z,66.86
2018-07-28T09:11:45.654Z,66.37
2018-07-28T09:12:46.237Z,66.50
2018-07-28T09:13:46.794Z,66.21
2018-07-28T09:14:47.363Z,66.69
2018-07-28T09:15:47.940Z,66.24
2018-07-28T09:16:48.509Z,66.14
2018-07-28T09:17:49.106Z,66.44
2018-07-28T09:18:49.649Z,65.92
2018-07-28T09:19:50.216Z,66.41
2018-07-28T09:20:50.794Z,66.17
2018-07-28T09:21:51.346Z,67.15
2018-07-28T09:22:51.917Z,67.35
2018-07-28T09:23:52.489Z,67.15
2018-07-28T09:24:53.061Z,67.15
2018-07-28T09:25:53.632Z,67.44
2018-07-28T09:26:54.208Z,68.41
2018-07-28T09:27:54.775Z,69.06
2018-07-28T09:28:55.343Z,70.65
2018-07-28T09:29:55.914Z,71.01
2018-07-28T09:30:56.483Z,70.85
2018-07-28T09:31:57.056Z,70.36
2018-07-28T09:32:57.630Z,70.26
2018-07-28T09:33:58.187Z,70.65
2018-07-28T09:34:58.758Z,70.50
2018-07-28T09:35:59.328Z,69.03
2018-07-28T09:36:59.967Z,68.97
2018-07-28T09:38:00.462Z,68.80
2018-07-28T09:39:01.027Z,67.67
2018-07-28T09:40:01.609Z,66.93
2018-07-28T09:41:02.171Z,66.27
2018-07-28T09:42:02.747Z,64.51
2018-07-28T09:43:03.319Z,64.48
2018-07-28T09:44:03.889Z,64.42
2018-07-28T09:45:04.457Z,64.19
2018-07-28T09:46:05.027Z,64.55
2018-07-28T09:47:05.625Z,64.84
2018-07-28T09:48:06.172Z,65.59
2018-07-28T09:49:06.737Z,66.08
2018-07-28T09:50:07.309Z,66.86
2018-07-28T09:51:07.880Z,66.17
2018-07-28T09:52:08.444Z,66.08
2018-07-28T09:53:09.018Z,66.96
2018-07-28T09:54:09.591Z,67.05
2018-07-28T09:55:10.163Z,67.25
2018-07-28T09:56:10.785Z,66.66
2018-07-28T09:57:11.335Z,67.02
2018-07-28T09:58:11.906Z,67.50
2018-07-28T09:59:12.478Z,67.22
2018-07-28T10:00:13.046Z,67.32
2018-07-28T10:01:13.612Z,67.96
2018-07-28T10:02:14.185Z,68.09
2018-07-28T10:03:14.758Z,67.70
2018-07-28T10:04:15.335Z,66.47
2018-07-28T10:05:15.913Z,65.78
2018-07-28T10:06:16.482Z,66.27
2018-07-28T10:07:17.056Z,65.88
2018-07-28T10:08:17.646Z,65.17
2018-07-28T10:09:18.204Z,64.48
2018-07-28T10:10:18.777Z,64.55
2018-07-28T10:11:19.351Z,63.38
2018-07-28T10:12:19.920Z,62.79
2018-07-28T10:13:20.492Z,62.43
2018-07-28T10:14:21.068Z,62.07
2018-07-28T10:15:21.650Z,60.89
2018-07-28T10:16:22.300Z,61.19
2018-07-28T10:17:22.789Z,60.99
2018-07-28T10:18:23.355Z,60.89
2018-07-28T10:19:23.930Z,60.11
2018-07-28T10:20:24.507Z,59.82
2018-07-28T10:21:25.083Z,58.26
2018-07-28T10:22:25.657Z,58.16
2018-07-28T10:23:26.238Z,57.70
2018-07-28T10:24:26.809Z,56.04
2018-07-28T10:25:27.388Z,56.58
2018-07-28T10:26:27.958Z,54.03
2018-07-28T10:27:28.535Z,54.23
2018-07-28T10:28:29.126Z,53.38
2018-07-28T10:29:29.689Z,54.09
2018-07-28T10:30:30.259Z,53.01
2018-07-28T10:31:30.837Z,52.33
2018-07-28T10:32:31.414Z,52.59
2018-07-28T10:33:31.989Z,53.08
2018-07-28T10:34:32.567Z,53.08
2018-07-28T10:35:33.142Z,53.08
2018-07-28T10:36:33.733Z,53.42
2018-07-28T10:37:34.298Z,54.08
2018-07-28T10:38:34.876Z,54.50
2018-07-28T10:39:35.438Z,54.17
2018-07-28T10:40:36.011Z,54.91
2018-07-28T10:41:36.588Z,55.30
2018-07-28T10:42:37.162Z,55.79
2018-07-28T10:43:37.731Z,56.15
2018-07-28T10:44:38.303Z,56.74
2018-07-28T10:45:38.902Z,56.64
2018-07-28T10:46:39.444Z,57.00
2018-07-28T10:47:40.016Z,57.39
2018-07-28T10:48:40.581Z,57.88
2018-07-28T10:49:41.156Z,57.78
2018-07-28T10:50:41.720Z,57.95
2018-07-28T10:51:42.292Z,58.12
2018-07-28T10:52:42.866Z,58.70
2018-07-28T10:53:43.436Z,58.89
2018-07-28T10:54:44.011Z,59.45
2018-07-28T10:55:44.582Z,59.87
2018-07-28T10:56:45.154Z,58.83
2018-07-28T10:57:45.728Z,59.15
2018-07-28T10:58:46.301Z,58.27
2018-07-28T10:59:46.878Z,58.37
2018-07-28T11:00:47.457Z,57.91
2018-07-28T11:01:48.026Z,57.62
2018-07-28T11:02:48.600Z,56.67
2018-07-28T11:03:49.173Z,56.99
2018-07-28T11:04:49.755Z,56.50
2018-07-28T11:05:50.326Z,56.89
2018-07-28T11:06:50.900Z,56.60
2018-07-28T11:07:51.475Z,55.84
2018-07-28T11:08:52.058Z,55.65
2018-07-28T11:09:52.626Z,55.28
2018-07-28T11:10:53.205Z,54.33
2018-07-28T11:11:53.787Z,53.74
2018-07-28T11:12:54.363Z,54.33
2018-07-28T11:13:54.933Z,53.55
2018-07-28T11:14:55.505Z,53.08
2018-07-28T11:15:56.080Z,52.40
2018-07-28T11:16:56.654Z,52.62
2018-07-28T11:17:57.228Z,52.45
2018-07-28T11:18:57.867Z,52.08
2018-07-28T11:19:58.379Z,51.59
2018-07-28T11:20:58.958Z,51.59
2018-07-28T11:21:59.529Z,51.39
2018-07-28T11:23:00.146Z,51.22
2018-07-28T11:24:00.834Z,50.81
2018-07-28T11:25:01.419Z,50.93
2018-07-28T11:26:02.158Z,50.66
2018-07-28T11:27:02.635Z,50.76
2018-07-28T11:28:03.212Z,50.27
2018-07-28T11:29:03.787Z,50.19
2018-07-28T11:30:04.363Z,50.07
2018-07-28T11:31:04.939Z,51.03
2018-07-28T11:32:05.593Z,51.27
2018-07-28T11:33:06.084Z,52.33
2018-07-28T11:34:06.658Z,53.77
2018-07-28T11:35:07.230Z,53.84
2018-07-28T11:36:07.806Z,53.74
2018-07-28T11:37:08.380Z,54.43
2018-07-28T11:38:08.957Z,55.04
2018-07-28T11:39:09.534Z,54.19
2018-07-28T11:40:10.111Z,53.82
2018-07-28T11:41:10.683Z,54.04
2018-07-28T11:42:11.259Z,53.28
2018-07-28T11:43:11.828Z,53.09
2018-07-28T11:44:12.440Z,52.52
2018-07-28T11:45:13.013Z,52.45
2018-07-28T11:46:13.586Z,51.96
2018-07-28T11:47:14.165Z,51.59
2018-07-28T11:48:14.740Z,51.50
2018-07-28T11:49:15.317Z,51.72
2018-07-28T11:50:15.892Z,51.69
2018-07-28T11:51:16.512Z,52.11
2018-07-28T11:52:17.049Z,51.74
2018-07-28T11:53:17.626Z,50.37
2018-07-28T11:54:18.201Z,49.97
2018-07-28T11:55:18.773Z,49.99
2018-07-28T11:56:19.347Z,49.80
2018-07-28T11:57:19.925Z,48.94
2018-07-28T11:58:20.606Z,48.89
2018-07-28T11:59:21.075Z,48.79
2018-07-28T12:00:21.651Z,49.21
2018-07-28T12:01:22.229Z,49.04
2018-07-28T12:02:22.804Z,48.96
2018-07-28T12:03:23.370Z,47.70
2018-07-28T12:04:23.956Z,47.63
2018-07-28T12:05:24.595Z,47.38
2018-07-28T12:06:25.118Z,46.39
2018-07-28T12:07:25.692Z,46.47
2018-07-28T12:08:26.267Z,47.01
2018-07-28T12:09:26.850Z,46.89
2018-07-28T12:10:27.420Z,46.30
2018-07-28T12:11:27.999Z,46.77
2018-07-28T12:12:28.626Z,46.72
2018-07-28T12:13:29.147Z,47.49
2018-07-28T12:14:29.732Z,47.49
2018-07-28T12:15:30.306Z,47.39
2018-07-28T12:16:30.884Z,48.13
2018-07-28T12:17:31.489Z,47.36
2018-07-28T12:18:32.100Z,48.05
2018-07-28T12:19:32.613Z,47.69
2018-07-28T12:20:33.186Z,47.71
2018-07-28T12:21:33.758Z,48.18
2018-07-28T12:22:34.337Z,47.78
2018-07-28T12:23:34.914Z,48.43
2018-07-28T12:24:35.489Z,48.52
2018-07-28T12:25:36.065Z,48.52
2018-07-28T12:26:36.634Z,48.91
2018-07-28T12:27:37.198Z,48.40
2018-07-28T12:28:37.770Z,49.16
2018-07-28T12:29:38.344Z,49.73
2018-07-28T12:30:38.913Z,49.43
2018-07-28T12:31:39.491Z,50.20
2018-07-28T12:32:40.060Z,50.29
2018-07-28T12:33:40.635Z,50.59
2018-07-28T12:34:41.304Z,50.59
2018-07-28T12:35:41.841Z,49.46
2018-07-28T12:36:42.507Z,49.75
2018-07-28T12:37:43.174Z,49.43
2018-07-28T12:38:43.799Z,49.43
2018-07-28T12:39:44.422Z,49.46
2018-07-28T12:40:45.039Z,49.08
2018-07-28T12:41:45.717Z,48.69
2018-07-28T12:42:46.319Z,48.52
2018-07-28T12:43:46.911Z,48.15
2018-07-28T12:44:47.474Z,47.29
2018-07-28T12:45:48.052Z,47.49
2018-07-28T12:46:48.629Z,47.49
2018-07-28T12:47:49.213Z,47.19
2018-07-28T12:48:49.781Z,47.25
2018-07-28T12:49:50.353Z,47.54
2018-07-28T12:50:50.930Z,48.13
2018-07-28T12:51:51.499Z,48.01
2018-07-28T12:52:52.081Z,48.52
2018-07-28T12:53:52.653Z,48.01
2018-07-28T12:54:53.230Z,48.01
2018-07-28T12:55:53.803Z,48.30
2018-07-28T12:56:54.378Z,48.50
2018-07-28T12:57:54.950Z,48.40
2018-07-28T12:58:55.527Z,48.79
2018-07-28T12:59:56.102Z,48.60